Time,TemperatureF,DewpointF,PressureIn,WindDirection,WindDirectionDegrees,WindSpeedMPH,WindSpeedGustMPH,Humidity,HourlyPrecipIn,Conditions,Clouds,dailyrainin,SoftwareType,DateUTC
2013-07-18 00:03:00,71.1,70.8,30.12,SSE,157,0.0,-999.0,99,-99.99,,,0.00,Acu-Link.com,2013-07-18 05:03:00,
2013-07-18 00:18:00,71.2,70.9,30.12,ESE,112,0.0,-999.0,99,-99.99,,,0.00,Acu-Link.com,2013-07-18 05:18:00,
2013-07-18 00:34:00,71.2,70.9,30.12,ESE,112,0.0,-999.0,99,-99.99,,,0.00,Acu-Link.com,2013-07-18 05:34:00,
2013-07-18 00:49:00,70.9,70.6,30.12,ESE,112,0.0,-999.0,99,-99.99,,,0.00,Acu-Link.com,2013-07-18 05:49:00,
2013-07-18 01:04:00,70.7,70.4,30.12,ESE,112,0.0,-999.0,99,-99.99,,,0.00,Acu-Link.com,2013-07-18 06:04:00,
2013-07-18 01:19:00,70.7,70.4,30.12,ESE,112,0.0,-999.0,99,-99.99,,,0.00,Acu-Link.com,2013-07-18 06:19:00,
2013-07-18 01:34:00,70.7,70.4,30.12,ESE,112,0.0,-999.0,99,-99.99,,,0.00,Acu-Link.com,2013-07-18 06:34:00,
2013-07-18 01:50:00,70.7,70.4,30.12,East,90,0.0,-999.0,99,-99.99,,,0.00,Acu-Link.com,2013-07-18 06:50:00,
2013-07-18 02:05:00,70.5,70.2,30.12,East,90,0.0,-999.0,99,-99.99,,,0.00,Acu-Link.com,2013-07-18 07:05:00,
2013-07-18 02:20:00,70.7,70.4,30.12,South,180,0.0,-999.0,99,-99.99,,,0.00,Acu-Link.com,2013-07-18 07:20:00,
2013-07-18 02:35:00,70.7,70.4,30.12,West,270,0.0,-999.0,99,-99.99,,,0.00,Acu-Link.com,2013-07-18 07:35:00,
2013-07-18 02:50:00,71.1,70.8,30.12,West,270,0.0,-999.0,99,-99.99,,,0.00,Acu-Link.com,2013-07-18 07:50:00,
2013-07-18 03:06:00,71.1,70.8,30.12,WNW,292,0.0,-999.0,99,-99.99,,,0.00,Acu-Link.com,2013-07-18 08:06:00,
2013-07-18 03:21:00,71.1,70.8,30.12,WNW,292,0.0,-999.0,99,-99.99,,,0.00,Acu-Link.com,2013-07-18 08:21:00,
2013-07-18 03:36:00,71.1,70.8,30.12,WNW,292,0.0,-999.0,99,-99.99,,,0.00,Acu-Link.com,2013-07-18 08:36:00,
2013-07-18 03:51:00,71.1,70.8,30.11,WNW,292,0.0,-999.0,99,-99.99,,,0.00,Acu-Link.com,2013-07-18 08:51:00,
2013-07-18 04:06:00,71.1,70.8,30.11,WNW,292,0.0,-999.0,99,-99.99,,,0.00,Acu-Link.com,2013-07-18 09:06:00,
2013-07-18 04:22:00,70.9,70.6,30.11,WNW,292,0.0,-999.0,99,-99.99,,,0.00,Acu-Link.com,2013-07-18 09:22:00,
2013-07-18 04:37:00,70.9,70.6,30.11,WNW,292,0.0,-999.0,99,-99.99,,,0.00,Acu-Link.com,2013-07-18 09:37:00,
2013-07-18 04:52:00,70.9,70.6,30.11,WNW,292,0.0,-999.0,99,-99.99,,,0.00,Acu-Link.com,2013-07-18 09:52:00,
2013-07-18 05:07:00,71.1,70.8,30.11,WNW,292,0.0,-999.0,99,-99.99,,,0.00,Acu-Link.com,2013-07-18 10:07:00,
2013-07-18 05:22:00,71.2,70.9,30.11,WNW,292,0.0,-999.0,99,-99.99,,,0.00,Acu-Link.com,2013-07-18 10:22:00,
2013-07-18 05:37:00,71.1,70.8,30.11,NW,315,0.0,-999.0,99,-99.99,,,0.00,Acu-Link.com,2013-07-18 10:37:00,
2013-07-18 05:53:00,71.2,70.9,30.11,NW,315,0.0,-999.0,99,-99.99,,,0.00,Acu-Link.com,2013-07-18 10:53:00,
2013-07-18 06:08:00,71.2,70.9,30.11,NW,315,0.0,-999.0,99,-99.99,,,0.00,Acu-Link.com,2013-07-18 11:08:00,
2013-07-18 06:23:00,71.2,70.9,30.11,NW,315,0.0,-999.0,99,-99.99,,,0.00,Acu-Link.com,2013-07-18 11:23:00,
2013-07-18 06:38:00,71.4,71.1,30.11,NW,315,0.0,-999.0,99,-99.99,,,0.00,Acu-Link.com,2013-07-18 11:38:00,
2013-07-18 06:54:00,71.6,71.3,30.11,NW,315,0.0,-999.0,99,-99.99,,,0.00,Acu-Link.com,2013-07-18 11:54:00,
2013-07-18 07:09:00,71.8,71.5,30.12,NNW,337,0.0,-999.0,99,-99.99,,,0.00,Acu-Link.com,2013-07-18 12:09:00,
2013-07-18 07:24:00,71.8,71.5,30.12,NE,45,0.0,-999.0,99,-99.99,,,0.00,Acu-Link.com,2013-07-18 12:24:00,
2013-07-18 07:39:00,72.1,71.8,30.12,NE,45,0.0,-999.0,99,-99.99,,,0.00,Acu-Link.com,2013-07-18 12:39:00,
2013-07-18 07:54:00,72.5,72.2,30.12,ENE,67,0.0,-999.0,99,-99.99,,,0.00,Acu-Link.com,2013-07-18 12:54:00,
2013-07-18 08:10:00,73.4,73.1,30.12,ENE,67,0.0,-999.0,99,-99.99,,,0.00,Acu-Link.com,2013-07-18 13:10:00,
2013-07-18 08:25:00,73.8,73.5,30.12,ENE,67,0.0,-999.0,99,-99.99,,,0.00,Acu-Link.com,2013-07-18 13:25:00,
2013-07-18 08:40:00,74.1,47.6,30.12,ENE,67,0.0,-999.0,39,-99.99,,,0.00,Acu-Link.com,2013-07-18 13:40:00,
2013-07-18 08:55:00,76.5,75.9,30.12,NNE,22,0.0,-999.0,98,-99.99,,,0.00,Acu-Link.com,2013-07-18 13:55:00,
2013-07-18 09:10:00,78.1,77.5,30.13,ENE,67,3.8,-999.0,98,-99.99,,,0.00,Acu-Link.com,2013-07-18 14:10:00,
2013-07-18 09:26:00,78.8,78.2,30.13,WNW,292,0.0,-999.0,98,-99.99,,,0.00,Acu-Link.com,2013-07-18 14:26:00,
2013-07-18 09:41:00,78.4,77.8,30.13,ESE,112,0.0,-999.0,98,-99.99,,,0.00,Acu-Link.com,2013-07-18 14:41:00,
2013-07-18 09:56:00,79.5,78.9,30.13,WSW,247,0.0,-999.0,98,-99.99,,,0.00,Acu-Link.com,2013-07-18 14:56:00,
2013-07-18 10:11:00,80.1,79.4,30.13,WNW,292,0.0,-999.0,98,-99.99,,,0.00,Acu-Link.com,2013-07-18 15:11:00,
2013-07-18 10:26:00,79.3,78.7,30.14,SSE,157,0.0,-999.0,98,-99.99,,,0.00,Acu-Link.com,2013-07-18 15:26:00,
2013-07-18 10:42:00,79.5,78.9,30.14,South,180,1.1,-999.0,98,-99.99,,,0.00,Acu-Link.com,2013-07-18 15:42:00,
2013-07-18 10:57:00,80.1,79.4,30.14,ESE,112,0.0,-999.0,98,-99.99,,,0.00,Acu-Link.com,2013-07-18 15:57:00,
2013-07-18 11:12:00,81.5,80.9,30.14,ESE,112,1.1,-999.0,98,-99.99,,,0.00,Acu-Link.com,2013-07-18 16:12:00,
2013-07-18 11:27:00,81.7,81.1,30.13,SSE,157,0.0,-999.0,98,-99.99,,,0.00,Acu-Link.com,2013-07-18 16:27:00,
2013-07-18 11:42:00,81.5,80.9,30.13,North,0,0.0,-999.0,98,-99.99,,,0.00,Acu-Link.com,2013-07-18 16:42:00,
2013-07-18 11:58:00,82.0,81.4,30.12,South,180,2.7,-999.0,98,-99.99,,,0.00,Acu-Link.com,2013-07-18 16:58:00,
2013-07-18 12:13:00,83.5,82.9,30.13,WSW,247,2.7,-999.0,98,-99.99,,,0.00,Acu-Link.com,2013-07-18 17:13:00,
2013-07-18 12:28:00,84.2,83.6,30.13,East,90,3.1,-999.0,98,-99.99,,,0.00,Acu-Link.com,2013-07-18 17:28:00,
2013-07-18 12:43:00,85.5,84.5,30.12,South,180,1.6,-999.0,97,-99.99,,,0.00,Acu-Link.com,2013-07-18 17:43:00,
2013-07-18 12:59:00,89.6,83.7,30.12,South,180,1.6,-999.0,83,-99.99,,,0.00,Acu-Link.com,2013-07-18 17:59:00,
2013-07-18 13:14:00,87.4,81.6,30.10,South,180,1.1,-999.0,83,-99.99,,,0.00,Acu-Link.com,2013-07-18 18:14:00,
2013-07-18 13:29:00,88.3,81.7,30.10,South,180,4.3,-999.0,81,-99.99,,,0.00,Acu-Link.com,2013-07-18 18:29:00,
2013-07-18 13:44:00,88.5,80.0,30.09,NNE,22,3.8,-999.0,76,-99.99,,,0.00,Acu-Link.com,2013-07-18 18:44:00,
2013-07-18 13:59:00,87.6,80.3,30.08,NNW,337,2.2,-999.0,79,-99.99,,,0.00,Acu-Link.com,2013-07-18 18:59:00,
2013-07-18 14:15:00,91.4,78.4,30.07,SSW,202,3.1,-999.0,66,-99.99,,,0.00,Acu-Link.com,2013-07-18 19:15:00,
2013-07-18 14:30:00,92.8,78.8,30.07,ESE,112,3.1,-999.0,64,-99.99,,,0.00,Acu-Link.com,2013-07-18 19:30:00,
2013-07-18 14:45:00,91.9,78.0,30.07,SSE,157,2.2,-999.0,64,-99.99,,,0.00,Acu-Link.com,2013-07-18 19:45:00,
2013-07-18 15:00:00,89.1,77.5,30.06,East,90,1.6,-999.0,69,-99.99,,,0.00,Acu-Link.com,2013-07-18 20:00:00,
2013-07-18 15:15:00,90.9,78.8,30.05,SSW,202,4.7,-999.0,68,-99.99,,,0.00,Acu-Link.com,2013-07-18 20:15:00,
2013-07-18 15:31:00,90.0,77.5,30.05,SW,225,1.1,-999.0,67,-99.99,,,0.00,Acu-Link.com,2013-07-18 20:31:00,
2013-07-18 15:46:00,92.1,76.2,30.04,WNW,292,1.6,-999.0,60,-99.99,,,0.00,Acu-Link.com,2013-07-18 20:46:00,
2013-07-18 16:01:00,91.9,77.5,30.03,NNW,337,4.7,-999.0,63,-99.99,,,0.00,Acu-Link.com,2013-07-18 21:01:00,
2013-07-18 16:16:00,90.0,74.7,30.02,South,180,2.2,-999.0,61,-99.99,,,0.00,Acu-Link.com,2013-07-18 21:16:00,
2013-07-18 16:31:00,92.8,75.3,30.01,SSW,202,3.8,-999.0,57,-99.99,,,0.00,Acu-Link.com,2013-07-18 21:31:00,
2013-07-18 16:47:00,92.1,76.7,30.01,North,0,1.6,-999.0,61,-99.99,,,0.00,Acu-Link.com,2013-07-18 21:47:00,
2013-07-18 17:02:00,92.5,77.5,30.00,SSE,157,4.3,-999.0,62,-99.99,,,0.00,Acu-Link.com,2013-07-18 22:02:00,
2013-07-18 17:17:00,89.4,75.1,30.00,SSW,202,0.0,-999.0,63,-99.99,,,0.00,Acu-Link.com,2013-07-18 22:17:00,
2013-07-18 17:32:00,91.8,77.3,29.99,NE,45,0.0,-999.0,63,-99.99,,,0.00,Acu-Link.com,2013-07-18 22:32:00,
2013-07-18 17:48:00,91.9,76.5,29.99,NNE,22,2.7,-999.0,61,-99.99,,,0.00,Acu-Link.com,2013-07-18 22:48:00,
2013-07-18 18:03:00,91.8,76.4,29.98,ESE,112,2.7,-999.0,61,-99.99,,,0.00,Acu-Link.com,2013-07-18 23:03:00,
2013-07-18 18:18:00,91.4,75.5,29.97,SSE,157,1.6,-999.0,60,-99.99,,,0.00,Acu-Link.com,2013-07-18 23:18:00,
2013-07-18 18:33:00,89.6,74.8,29.97,SSW,202,0.0,-999.0,62,-99.99,,,0.00,Acu-Link.com,2013-07-18 23:33:00,
2013-07-18 18:48:00,88.9,76.0,29.97,East,90,0.0,-999.0,66,-99.99,,,0.00,Acu-Link.com,2013-07-18 23:48:00,
2013-07-18 19:04:00,89.6,76.2,29.96,South,180,0.0,-999.0,65,-99.99,,,0.00,Acu-Link.com,2013-07-19 00:04:00,
2013-07-18 19:19:00,89.4,75.6,29.96,South,180,2.2,-999.0,64,-99.99,,,0.00,Acu-Link.com,2013-07-19 00:19:00,
2013-07-18 19:34:00,88.2,75.3,29.96,South,180,4.3,-999.0,66,-99.99,,,0.00,Acu-Link.com,2013-07-19 00:34:00,
2013-07-18 19:49:00,87.4,75.5,29.96,SSE,157,0.0,-999.0,68,-99.99,,,0.00,Acu-Link.com,2013-07-19 00:49:00,
2013-07-18 20:04:00,86.4,75.4,29.96,South,180,0.0,-999.0,70,-99.99,,,0.00,Acu-Link.com,2013-07-19 01:04:00,
2013-07-18 20:19:00,84.7,75.5,29.96,ESE,112,0.0,-999.0,74,-99.99,,,0.00,Acu-Link.com,2013-07-19 01:19:00,
2013-07-18 20:35:00,82.8,79.9,29.97,ESE,112,0.0,-999.0,91,-99.99,,,0.00,Acu-Link.com,2013-07-19 01:35:00,
2013-07-18 20:50:00,80.8,80.2,29.97,ESE,112,0.0,-999.0,98,-99.99,,,0.00,Acu-Link.com,2013-07-19 01:50:00,
2013-07-18 21:05:00,79.0,78.4,29.97,ESE,112,0.0,-999.0,98,-99.99,,,0.00,Acu-Link.com,2013-07-19 02:05:00,
2013-07-18 21:20:00,77.5,76.9,29.97,ESE,112,0.0,-999.0,98,-99.99,,,0.00,Acu-Link.com,2013-07-19 02:20:00,
2013-07-18 21:36:00,76.5,75.9,29.98,WSW,247,0.0,-999.0,98,-99.99,,,0.00,Acu-Link.com,2013-07-19 02:36:00,
2013-07-18 21:51:00,75.2,74.6,29.98,WSW,247,0.0,-999.0,98,-99.99,,,0.00,Acu-Link.com,2013-07-19 02:51:00,
2013-07-18 22:06:00,74.7,74.1,29.98,NW,315,0.0,-999.0,98,-99.99,,,0.00,Acu-Link.com,2013-07-19 03:06:00,
2013-07-18 22:21:00,73.9,73.3,29.99,South,180,0.0,-999.0,98,-99.99,,,0.00,Acu-Link.com,2013-07-19 03:21:00,
2013-07-18 22:36:00,73.4,72.8,30.00,NNW,337,0.0,-999.0,98,-99.99,,,0.00,Acu-Link.com,2013-07-19 03:36:00,
2013-07-18 22:52:00,72.9,72.3,30.00,NNW,337,0.0,-999.0,98,-99.99,,,0.00,Acu-Link.com,2013-07-19 03:52:00,
2013-07-18 23:07:00,72.7,72.1,30.01,West,270,0.0,-999.0,98,-99.99,,,0.00,Acu-Link.com,2013-07-19 04:07:00,
2013-07-18 23:22:00,72.5,71.9,30.00,West,270,0.0,-999.0,98,-99.99,,,0.00,Acu-Link.com,2013-07-19 04:22:00,
2013-07-18 23:37:00,72.0,71.4,30.00,West,270,0.0,-999.0,98,-99.99,,,0.00,Acu-Link.com,2013-07-19 04:37:00,
2013-07-18 23:52:00,72.1,71.5,30.00,NNW,337,0.0,-999.0,98,-99.99,,,0.00,Acu-Link.com,2013-07-19 04:52:00,